Time;durP1;ratioP1;P1;durP2;ratioP2;P2;SDS_P1;SDS_P2;PMS_P1;PMS_P2;Temp;Humidity;BMP_temperature;BMP_pressure;BME280_temperature;BME280_humidity;BME280_pressure;Samples;Min_cycle;Max_cycle;Signal;HPM_P1;HPM_P2
2024/01/23 00:01:11;;;;;;;10.73;4.40;;;10.40;99.90;;;;;;5034867;28;20422;-63
2024/01/23 00:03:37;;;;;;;7.73;3.77;;;10.40;99.90;;;;;;5053356;28;20196;-63
2024/01/23 00:06:03;;;;;;;7.33;4.07;;;10.30;99.90;;;;;;5052809;28;20184;-65
2024/01/23 00:08:29;;;;;;;9.97;4.17;;;10.30;99.90;;;;;;5053943;28;20185;-64
2024/01/23 00:10:56;;;;;;;11.93;3.90;;;10.30;99.90;;;;;;5034591;28;20454;-67
2024/01/23 00:13:22;;;;;;;10.03;3.87;;;10.30;99.90;;;;;;5052185;28;20463;-66
2024/01/23 00:15:48;;;;;;;10.43;5.00;;;10.30;99.90;;;;;;5052782;28;20450;-66
2024/01/23 00:18:14;;;;;;;5.40;3.67;;;10.20;99.90;;;;;;5034995;28;20423;-66
2024/01/23 00:20:40;;;;;;;10.33;3.67;;;10.00;99.90;;;;;;5051608;28;20804;-66
2024/01/23 00:23:06;;;;;;;5.40;4.20;;;10.10;99.90;;;;;;5035943;28;20400;-66
2024/01/23 00:25:32;;;;;;;7.13;3.97;;;10.10;99.90;;;;;;5035094;28;20837;-61
2024/01/23 00:27:58;;;;;;;7.20;3.40;;;10.10;99.90;;;;;;5053103;28;20170;-67
2024/01/23 00:30:23;;;;;;;10.63;4.37;;;10.10;99.90;;;;;;5053777;28;20649;-66
2024/01/23 00:32:49;;;;;;;8.30;3.73;;;10.10;99.90;;;;;;5052725;28;20263;-66
2024/01/23 00:35:15;;;;;;;11.00;3.43;;;10.10;99.90;;;;;;5052569;28;20735;-66
2024/01/23 00:37:41;;;;;;;7.73;3.33;;;10.10;99.90;;;;;;5034417;28;20275;-61
2024/01/23 00:40:10;;;;;;;12.50;3.60;;;10.10;99.90;;;;;;5052650;28;20450;-66
2024/01/23 00:42:35;;;;;;;9.80;3.77;;;10.00;99.90;;;;;;5033688;28;20177;-61
2024/01/23 00:45:01;;;;;;;7.97;3.20;;;10.00;99.90;;;;;;5051003;28;20442;-68
2024/01/23 00:47:27;;;;;;;12.53;4.00;;;10.10;99.90;;;;;;5052384;28;20174;-67
2024/01/23 00:49:53;;;;;;;6.03;4.40;;;10.00;99.90;;;;;;5051263;28;20638;-66
2024/01/23 00:52:18;;;;;;;7.93;3.80;;;10.10;99.90;;;;;;5051449;28;20543;-66
2024/01/23 00:54:44;;;;;;;9.70;3.63;;;10.10;99.90;;;;;;5051666;28;20192;-66
2024/01/23 00:57:10;;;;;;;10.73;4.37;;;10.10;99.90;;;;;;5017951;28;20266;-66
2024/01/23 00:59:35;;;;;;;10.87;4.00;;;10.00;99.90;;;;;;5051009;28;20181;-65
2024/01/23 01:02:02;;;;;;;9.47;4.33;;;10.00;99.90;;;;;;5053000;28;20649;-64
2024/01/23 01:04:28;;;;;;;10.93;4.73;;;9.90;99.90;;;;;;5051998;28;20199;-64
2024/01/23 01:06:54;;;;;;;8.70;4.60;;;9.90;99.90;;;;;;5051191;28;20456;-64
2024/01/23 01:09:19;;;;;;;9.53;4.80;;;9.80;99.90;;;;;;5052245;28;20214;-64
2024/01/23 01:11:45;;;;;;;8.70;3.80;;;9.70;99.90;;;;;;5051656;28;20175;-64
2024/01/23 01:14:11;;;;;;;4.80;3.90;;;9.70;99.90;;;;;;5051285;28;20585;-64
2024/01/23 01:16:37;;;;;;;7.50;3.67;;;9.70;99.90;;;;;;5051010;28;20197;-60
2024/01/23 01:19:03;;;;;;;11.73;4.73;;;9.70;99.90;;;;;;5051506;28;20197;-64
2024/01/23 01:21:29;;;;;;;10.33;3.70;;;9.60;99.90;;;;;;5052850;28;20272;-64
2024/01/23 01:23:55;;;;;;;13.33;3.70;;;9.60;99.90;;;;;;5050994;28;20504;-64
2024/01/23 01:26:21;;;;;;;10.30;3.63;;;9.60;99.90;;;;;;5052276;28;20441;-64
2024/01/23 01:28:46;;;;;;;9.10;4.10;;;9.70;99.90;;;;;;5033107;28;20184;-63
2024/01/23 01:31:12;;;;;;;9.80;3.60;;;9.80;99.90;;;;;;5051552;28;20184;-64
2024/01/23 01:33:38;;;;;;;6.37;3.03;;;9.70;99.90;;;;;;5032307;28;20450;-63
2024/01/23 01:36:04;;;;;;;10.00;3.60;;;9.60;99.90;;;;;;5052439;28;20177;-64
2024/01/23 01:38:30;;;;;;;7.93;4.00;;;9.70;99.90;;;;;;5051535;28;20186;-64
2024/01/23 01:40:58;;;;;;;10.00;3.37;;;9.60;99.90;;;;;;5049993;28;20517;-64
2024/01/23 01:43:26;;;;;;;9.43;3.73;;;9.70;99.90;;;;;;5052220;28;20180;-64
2024/01/23 01:46:13;;;;;;;7.47;3.80;;;9.60;99.90;;;;;;5050393;28;20421;-64
2024/01/23 01:48:39;;;;;;;16.70;4.20;;;9.60;99.90;;;;;;5049375;28;20413;-61
2024/01/23 01:51:05;;;;;;;10.10;3.80;;;9.60;99.90;;;;;;5052379;28;20419;-64
2024/01/23 01:53:32;;;;;;;10.03;4.00;;;9.60;99.90;;;;;;5051410;28;20427;-64
2024/01/23 01:55:58;;;;;;;8.10;3.53;;;9.60;99.90;;;;;;5032365;28;20929;-64
2024/01/23 01:58:27;;;;;;;10.80;4.13;;;9.60;99.90;;;;;;5052061;28;20407;-63
2024/01/23 02:00:53;;;;;;;8.30;3.63;;;9.60;99.90;;;;;;5050890;28;20924;-64
2024/01/23 02:03:21;;;;;;;13.27;3.77;;;9.60;99.90;;;;;;5051145;28;20425;-64
2024/01/23 02:05:48;;;;;;;10.33;4.10;;;9.70;99.90;;;;;;5051312;28;20402;-63
2024/01/23 02:08:15;;;;;;;5.20;4.27;;;9.70;99.90;;;;;;5049946;28;20412;-64
2024/01/23 02:10:41;;;;;;;7.43;3.80;;;9.80;99.90;;;;;;5047720;28;20438;-63
2024/01/23 02:13:07;;;;;;;5.87;4.37;;;9.80;99.90;;;;;;5059649;28;20409;-64
2024/01/23 02:15:33;;;;;;;5.87;4.40;;;9.80;99.90;;;;;;5059029;28;20688;-64
2024/01/23 02:17:59;;;;;;;7.00;3.80;;;9.80;99.90;;;;;;5056340;28;20434;-64
2024/01/23 02:20:25;;;;;;;7.00;5.23;;;9.80;99.90;;;;;;5071306;28;20415;-64
2024/01/23 02:22:51;;;;;;;9.60;4.03;;;9.70;99.90;;;;;;5040789;28;20170;-64
2024/01/23 02:25:16;;;;;;;7.80;4.40;;;9.70;99.90;;;;;;5056518;28;20779;-64
2024/01/23 02:27:42;;;;;;;11.73;4.63;;;9.70;99.90;;;;;;5041623;28;20519;-64
2024/01/23 02:30:08;;;;;;;7.67;4.10;;;9.70;99.90;;;;;;5059692;28;20178;-64
2024/01/23 02:32:34;;;;;;;7.63;3.73;;;9.70;99.90;;;;;;5059383;28;20169;-64
2024/01/23 02:35:00;;;;;;;11.17;3.60;;;9.70;99.90;;;;;;5060808;28;21395;-63
2024/01/23 02:37:25;;;;;;;6.73;4.10;;;9.70;99.90;;;;;;5059536;28;20198;-64
2024/01/23 02:39:51;;;;;;;9.47;5.00;;;9.70;99.90;;;;;;5055998;28;20190;-64
2024/01/23 02:42:17;;;;;;;10.90;4.40;;;9.70;99.90;;;;;;5058572;28;20180;-64
2024/01/23 02:44:45;;;;;;;8.23;3.70;;;9.70;99.90;;;;;;5057068;28;20755;-63
2024/01/23 02:47:14;;;;;;;11.03;4.07;;;9.70;99.90;;;;;;5059049;28;20419;-64
2024/01/23 02:49:41;;;;;;;11.07;4.00;;;9.70;99.90;;;;;;5058403;28;20449;-60
2024/01/23 02:52:07;;;;;;;13.80;6.00;;;9.70;99.90;;;;;;5042548;28;20755;-64
2024/01/23 02:54:33;;;;;;;7.83;4.20;;;9.70;99.90;;;;;;5058975;28;20446;-64
2024/01/23 02:56:59;;;;;;;9.00;4.10;;;9.60;99.90;;;;;;5038084;28;20830;-64
2024/01/23 02:59:25;;;;;;;6.83;3.83;;;9.70;99.90;;;;;;5062830;28;20408;-64
2024/01/23 03:01:51;;;;;;;5.27;3.73;;;9.70;99.90;;;;;;5057090;28;20925;-64
2024/01/23 03:04:16;;;;;;;10.80;4.43;;;9.50;99.90;;;;;;5058121;28;20412;-65
2024/01/23 03:06:42;;;;;;;7.50;3.83;;;9.60;99.90;;;;;;5061343;28;20169;-64
2024/01/23 03:09:10;;;;;;;6.37;3.77;;;9.60;99.90;;;;;;5058827;28;20602;-64
2024/01/23 03:11:37;;;;;;;8.33;3.40;;;9.70;99.90;;;;;;5057481;28;20175;-64
2024/01/23 03:14:03;;;;;;;10.17;4.13;;;9.70;99.90;;;;;;5050435;28;20470;-64
2024/01/23 03:16:29;;;;;;;11.73;4.20;;;9.70;99.90;;;;;;5033540;28;20811;-65
2024/01/23 03:18:54;;;;;;;8.90;3.83;;;9.70;99.90;;;;;;5032082;28;20423;-64
2024/01/23 03:21:20;;;;;;;9.00;4.80;;;9.70;99.90;;;;;;5034323;28;20173;-65
2024/01/23 03:23:46;;;;;;;6.97;3.43;;;9.70;99.90;;;;;;5035597;28;20234;-65
2024/01/23 03:26:12;;;;;;;8.00;3.77;;;9.70;99.90;;;;;;5053886;28;20177;-65
2024/01/23 03:28:37;;;;;;;12.23;5.03;;;9.80;99.90;;;;;;5053577;28;20171;-63
2024/01/23 03:31:03;;;;;;;7.47;4.07;;;9.80;99.90;;;;;;5050523;28;20172;-64
2024/01/23 03:33:29;;;;;;;8.90;3.40;;;9.70;99.90;;;;;;5053635;28;20267;-65
2024/01/23 03:35:55;;;;;;;11.10;3.60;;;9.70;99.90;;;;;;5053789;28;20611;-65
2024/01/23 03:38:21;;;;;;;5.57;3.33;;;9.80;99.90;;;;;;5054614;28;20421;-65
2024/01/23 03:40:47;;;;;;;7.70;3.03;;;9.70;99.90;;;;;;5053822;28;20409;-64
2024/01/23 03:43:12;;;;;;;5.60;3.17;;;9.60;99.90;;;;;;5053484;28;20249;-63
2024/01/23 03:45:38;;;;;;;9.83;2.93;;;9.60;99.90;;;;;;5054478;28;20255;-64
2024/01/23 03:48:04;;;;;;;6.50;3.23;;;9.60;99.90;;;;;;5052828;28;20168;-64
2024/01/23 03:50:30;;;;;;;12.13;3.33;;;9.50;99.90;;;;;;5053638;28;20627;-65
2024/01/23 03:52:56;;;;;;;5.93;3.53;;;9.50;99.90;;;;;;5053875;28;20884;-65
2024/01/23 03:55:22;;;;;;;7.60;3.43;;;9.50;99.90;;;;;;5053119;28;20867;-65
2024/01/23 03:57:48;;;;;;;4.27;3.20;;;9.50;99.90;;;;;;5034931;28;20421;-64
2024/01/23 04:00:14;;;;;;;6.67;3.93;;;9.40;99.90;;;;;;5054512;28;20166;-64
2024/01/23 04:02:41;;;;;;;6.70;3.60;;;9.40;99.90;;;;;;5053141;28;20233;-60
2024/01/23 04:05:07;;;;;;;8.30;2.97;;;9.40;99.90;;;;;;5053371;28;20421;-64
2024/01/23 04:07:34;;;;;;;10.83;3.40;;;9.40;99.90;;;;;;5054254;28;20811;-64
2024/01/23 04:10:00;;;;;;;5.90;3.70;;;9.30;99.90;;;;;;5053389;28;20417;-65
2024/01/23 04:12:26;;;;;;;9.77;3.63;;;9.40;99.90;;;;;;5034258;28;20850;-64
2024/01/23 04:14:52;;;;;;;8.30;4.20;;;9.30;99.90;;;;;;5035089;28;20577;-64
2024/01/23 04:17:18;;;;;;;6.90;3.27;;;9.40;99.90;;;;;;5053205;28;20213;-64
2024/01/23 04:19:43;;;;;;;12.63;3.60;;;9.40;99.90;;;;;;5052474;28;22079;-60
2024/01/23 04:22:10;;;;;;;4.40;3.40;;;9.40;99.90;;;;;;5053875;28;20177;-64
2024/01/23 04:24:37;;;;;;;7.10;3.80;;;9.30;99.90;;;;;;5052988;28;20221;-64
2024/01/23 04:27:04;;;;;;;8.30;4.00;;;9.30;99.90;;;;;;5051404;28;20428;-63
2024/01/23 04:29:29;;;;;;;10.73;3.80;;;9.40;99.90;;;;;;5053565;28;20418;-64
2024/01/23 04:31:55;;;;;;;5.50;3.03;;;9.50;99.90;;;;;;5052380;28;20425;-64
2024/01/23 04:34:21;;;;;;;7.17;3.50;;;9.50;99.90;;;;;;5052871;28;20452;-64
2024/01/23 04:36:48;;;;;;;8.33;4.07;;;9.50;99.90;;;;;;5052672;28;20186;-63
2024/01/23 04:39:14;;;;;;;10.10;3.67;;;9.60;99.90;;;;;;5034630;28;20171;-65
2024/01/23 04:41:40;;;;;;;13.73;4.40;;;9.50;99.90;;;;;;5053129;28;20926;-64
2024/01/23 04:44:06;;;;;;;4.67;3.40;;;9.40;99.90;;;;;;5053060;28;20415;-64
2024/01/23 04:46:31;;;;;;;4.90;3.77;;;9.40;99.90;;;;;;5053407;28;20170;-65
2024/01/23 04:48:57;;;;;;;8.63;5.33;;;9.40;99.90;;;;;;5051299;28;20168;-64
2024/01/23 04:51:23;;;;;;;10.27;3.73;;;9.40;99.90;;;;;;5052346;28;20202;-62
2024/01/23 04:53:52;;;;;;;7.70;3.80;;;9.30;99.90;;;;;;5052468;28;20884;-64
2024/01/23 04:56:18;;;;;;;8.30;4.50;;;9.30;99.90;;;;;;5052229;28;20766;-64
2024/01/23 04:58:44;;;;;;;7.63;3.27;;;9.30;99.90;;;;;;5053160;28;20402;-59
2024/01/23 05:01:10;;;;;;;10.40;3.87;;;9.30;99.90;;;;;;5052890;28;20402;-65
2024/01/23 05:03:36;;;;;;;7.07;3.10;;;9.30;99.90;;;;;;5053091;28;20177;-65
2024/01/23 05:06:02;;;;;;;5.90;3.10;;;9.20;99.90;;;;;;5051327;28;20196;-64
2024/01/23 05:08:27;;;;;;;7.97;4.60;;;9.20;99.90;;;;;;5052077;28;20177;-65
2024/01/23 05:10:53;;;;;;;3.87;3.10;;;9.20;99.90;;;;;;5052408;28;20172;-65
2024/01/23 05:13:19;;;;;;;9.57;3.60;;;9.20;99.90;;;;;;5033893;28;20666;-64
2024/01/23 05:15:44;;;;;;;6.97;3.77;;;9.30;99.90;;;;;;5050845;28;20445;-62
2024/01/23 05:18:10;;;;;;;7.33;3.90;;;9.20;99.90;;;;;;5052136;28;20185;-64
2024/01/23 05:20:36;;;;;;;4.87;3.97;;;9.20;99.90;;;;;;5052110;28;20228;-65
2024/01/23 05:23:03;;;;;;;6.23;3.67;;;9.20;99.90;;;;;;5033060;28;20596;-66
2024/01/23 05:25:29;;;;;;;10.03;3.50;;;9.20;99.90;;;;;;5052602;28;20513;-65
2024/01/23 05:27:55;;;;;;;6.87;3.80;;;9.30;99.90;;;;;;5052080;28;20967;-64
2024/01/23 05:30:21;;;;;;;10.43;3.60;;;9.20;99.90;;;;;;5052129;28;20197;-65
2024/01/23 05:32:47;;;;;;;8.87;3.70;;;9.30;99.90;;;;;;5051249;28;20753;-59
2024/01/23 05:35:13;;;;;;;15.23;3.93;;;9.20;99.90;;;;;;5051370;28;20457;-64
2024/01/23 05:37:39;;;;;;;6.97;3.70;;;9.30;99.90;;;;;;5051392;28;20188;-65
2024/01/23 05:40:09;;;;;;;13.90;3.97;;;9.30;99.90;;;;;;5050430;28;20193;-66
2024/01/23 05:42:34;;;;;;;10.70;3.70;;;9.30;99.90;;;;;;5033617;28;20881;-66
2024/01/23 05:45:00;;;;;;;9.20;4.17;;;9.30;99.90;;;;;;5051093;28;20447;-65
2024/01/23 05:47:26;;;;;;;7.23;3.33;;;9.30;99.90;;;;;;5050465;28;20256;-66
2024/01/23 05:49:52;;;;;;;8.63;3.77;;;9.20;99.90;;;;;;5032609;28;20170;-63
2024/01/23 05:52:17;;;;;;;9.37;3.70;;;9.30;99.90;;;;;;5052612;28;20174;-65
2024/01/23 05:54:44;;;;;;;10.30;4.10;;;9.30;99.90;;;;;;5050994;28;20871;-65
2024/01/23 05:57:11;;;;;;;9.73;4.23;;;9.30;99.90;;;;;;5050204;28;20767;-65
2024/01/23 05:59:36;;;;;;;11.23;4.80;;;9.30;99.90;;;;;;5052011;28;20402;-65
2024/01/23 06:02:04;;;;;;;8.00;5.30;;;9.30;99.90;;;;;;5049947;28;20968;-65
2024/01/23 06:04:30;;;;;;;13.07;6.10;;;9.30;99.90;;;;;;5050994;28;20185;-66
2024/01/23 06:06:56;;;;;;;8.50;5.40;;;9.30;99.90;;;;;;5049931;28;20519;-65
2024/01/23 06:09:22;;;;;;;8.17;5.30;;;9.40;99.90;;;;;;5051873;28;20758;-66
2024/01/23 06:11:47;;;;;;;12.30;4.77;;;9.30;99.90;;;;;;5048583;28;20428;-65
2024/01/23 06:14:13;;;;;;;10.03;5.23;;;9.30;99.90;;;;;;5018403;28;20552;-65
2024/01/23 06:16:39;;;;;;;12.97;4.67;;;9.30;99.90;;;;;;5012296;28;20182;-65
2024/01/23 06:19:08;;;;;;;12.73;5.00;;;9.40;99.90;;;;;;5010425;28;20459;-64
2024/01/23 06:21:35;;;;;;;12.60;4.33;;;9.40;99.90;;;;;;5011084;28;20183;-65
2024/01/23 06:24:00;;;;;;;8.97;3.87;;;9.40;99.90;;;;;;5010025;28;20497;-65
2024/01/23 06:26:26;;;;;;;5.40;3.37;;;9.40;99.90;;;;;;5012812;28;20939;-65
2024/01/23 06:28:52;;;;;;;9.80;4.17;;;9.40;99.90;;;;;;5010591;28;20658;-61
2024/01/23 06:31:25;;;;;;;10.63;3.43;;;9.40;99.90;;;;;;5009894;28;20191;-68
2024/01/23 06:33:51;;;;;;;9.57;4.07;;;9.30;99.90;;;;;;5009994;28;20828;-69
2024/01/23 06:36:17;;;;;;;7.00;3.70;;;9.30;99.90;;;;;;5012559;28;20419;-68
2024/01/23 06:38:43;;;;;;;11.17;4.13;;;9.30;99.90;;;;;;5009559;28;20432;-68
2024/01/23 06:41:09;;;;;;;13.27;4.57;;;9.30;99.90;;;;;;5010971;28;20206;-68
2024/01/23 06:43:34;;;;;;;10.37;4.30;;;9.30;99.90;;;;;;5011115;28;20192;-68
2024/01/23 06:46:01;;;;;;;12.00;4.40;;;9.30;99.90;;;;;;5010091;28;20183;-68
2024/01/23 06:48:27;;;;;;;6.93;4.10;;;9.30;99.90;;;;;;5011533;28;20173;-67
2024/01/23 06:50:53;;;;;;;7.27;3.90;;;9.20;99.90;;;;;;5011730;28;20465;-67
2024/01/23 06:53:19;;;;;;;11.70;4.50;;;9.20;99.90;;;;;;5011629;28;20818;-67
2024/01/23 06:55:45;;;;;;;10.37;3.33;;;9.20;99.90;;;;;;5011398;28;20963;-67
2024/01/23 06:58:11;;;;;;;6.93;4.90;;;9.30;99.90;;;;;;5011999;28;20597;-61
2024/01/23 07:00:37;;;;;;;10.70;3.80;;;9.30;99.90;;;;;;5004665;28;20980;-62
2024/01/23 07:03:03;;;;;;;6.43;3.53;;;9.40;99.90;;;;;;5015529;28;20421;-62
2024/01/23 07:05:29;;;;;;;9.63;4.30;;;9.30;99.90;;;;;;5014684;28;20948;-62
2024/01/23 07:07:54;;;;;;;13.80;4.33;;;9.10;99.90;;;;;;5014246;28;20414;-59
2024/01/23 07:10:20;;;;;;;13.90;4.00;;;9.20;99.90;;;;;;5015225;28;20661;-62
2024/01/23 07:12:47;;;;;;;12.63;4.37;;;9.20;99.90;;;;;;5014130;28;20176;-62
2024/01/23 07:15:13;;;;;;;9.30;3.80;;;9.20;99.90;;;;;;5050593;28;20556;-62
2024/01/23 07:17:39;;;;;;;12.80;4.13;;;9.20;99.90;;;;;;5054632;28;20498;-62
2024/01/23 07:20:08;;;;;;;8.83;4.20;;;9.20;99.90;;;;;;5054830;28;20576;-62
2024/01/23 07:22:33;;;;;;;8.67;3.70;;;9.20;99.90;;;;;;5055413;28;20171;-62
2024/01/23 07:25:02;;;;;;;9.67;5.07;;;9.20;99.90;;;;;;5053481;28;20767;-62
2024/01/23 07:27:28;;;;;;;14.20;4.47;;;9.20;99.90;;;;;;5052327;28;20175;-63
2024/01/23 07:29:54;;;;;;;11.57;5.07;;;9.20;99.90;;;;;;5052775;28;20430;-59
2024/01/23 07:32:19;;;;;;;7.93;3.50;;;9.30;99.90;;;;;;5053345;28;20192;-63
2024/01/23 07:34:45;;;;;;;12.40;4.30;;;9.30;99.90;;;;;;5053842;28;20649;-61
2024/01/23 07:37:11;;;;;;;10.07;3.40;;;9.30;99.90;;;;;;5052041;28;20179;-63
2024/01/23 07:39:37;;;;;;;12.20;3.70;;;9.30;99.90;;;;;;5053942;28;20421;-66
2024/01/23 07:42:03;;;;;;;7.33;2.60;;;9.30;99.90;;;;;;5050448;28;20199;-62
2024/01/23 07:44:32;;;;;;;10.45;5.00;;;9.20;99.90;;;;;;5045520;28;20496;-62
2024/01/23 07:46:58;;;;;;;11.23;4.70;;;9.10;99.90;;;;;;5059186;28;20167;-62
2024/01/23 07:49:24;;;;;;;6.43;4.40;;;9.20;99.90;;;;;;5060529;28;20428;-61
2024/01/23 07:51:50;;;;;;;10.63;4.27;;;9.30;99.90;;;;;;5065001;28;20881;-62
2024/01/23 07:54:17;;;;;;;13.93;5.70;;;9.30;99.90;;;;;;5061652;28;20357;-62
2024/01/23 07:56:43;;;;;;;7.27;4.80;;;9.30;99.90;;;;;;5043911;28;20971;-62
2024/01/23 07:59:09;;;;;;;6.13;3.80;;;9.20;99.90;;;;;;5058644;28;20423;-62
2024/01/23 08:01:34;;;;;;;10.60;4.40;;;9.30;99.90;;;;;;5053779;28;20635;-62
2024/01/23 08:04:00;;;;;;;11.93;4.60;;;9.30;99.90;;;;;;5055006;28;20422;-63
2024/01/23 08:06:26;;;;;;;10.17;4.27;;;9.30;99.90;;;;;;5060736;28;20892;-62
2024/01/23 08:08:52;;;;;;;8.87;3.80;;;9.30;99.90;;;;;;5042176;28;20439;-61
2024/01/23 08:11:20;;;;;;;15.60;4.80;;;9.30;99.90;;;;;;5058564;28;20185;-62
2024/01/23 08:13:46;;;;;;;12.40;4.50;;;9.30;99.90;;;;;;5057035;28;20241;-62
2024/01/23 08:16:12;;;;;;;6.63;5.13;;;9.30;99.90;;;;;;5061551;28;20414;-64
2024/01/23 08:18:40;;;;;;;10.53;6.20;;;9.30;99.90;;;;;;5059419;28;20973;-63
2024/01/23 08:21:07;;;;;;;12.60;4.80;;;9.30;99.90;;;;;;5059270;28;20165;-62
2024/01/23 08:23:33;;;;;;;7.50;5.57;;;9.30;99.90;;;;;;5062420;28;20413;-63
2024/01/23 08:25:59;;;;;;;8.73;5.93;;;9.30;99.90;;;;;;5061613;28;20424;-62
2024/01/23 08:28:25;;;;;;;10.30;7.07;;;9.40;99.90;;;;;;5059844;28;20177;-63
2024/01/23 08:30:50;;;;;;;10.80;6.57;;;9.30;99.90;;;;;;5057285;28;20673;-62
2024/01/23 08:33:20;;;;;;;14.07;6.77;;;9.30;99.90;;;;;;5058620;28;20166;-63
2024/01/23 08:35:46;;;;;;;12.50;6.40;;;9.30;99.90;;;;;;5030706;28;20558;-63
2024/01/23 08:38:13;;;;;;;14.50;5.23;;;9.30;99.90;;;;;;5041158;28;20466;-62
2024/01/23 08:40:39;;;;;;;16.20;5.43;;;9.30;99.90;;;;;;5037511;28;20427;-62
2024/01/23 08:43:05;;;;;;;9.60;4.23;;;9.40;99.90;;;;;;5055977;28;20424;-61
2024/01/23 08:45:32;;;;;;;8.10;5.30;;;9.30;99.90;;;;;;5053840;28;20205;-62
2024/01/23 08:47:58;;;;;;;11.87;4.80;;;9.30;99.90;;;;;;5050251;28;20410;-60
2024/01/23 08:50:24;;;;;;;10.90;4.10;;;9.20;99.90;;;;;;5051257;28;20449;-63
2024/01/23 08:52:49;;;;;;;9.20;4.40;;;9.10;99.90;;;;;;5055736;28;20570;-60
2024/01/23 08:55:15;;;;;;;11.23;3.90;;;9.30;99.90;;;;;;5055480;28;20309;-59
2024/01/23 08:57:43;;;;;;;10.07;5.33;;;9.20;99.90;;;;;;5058445;28;20842;-60
2024/01/23 09:00:11;;;;;;;12.97;6.20;;;9.90;99.90;;;;;;5063024;28;20796;-60
2024/01/23 09:02:37;;;;;;;11.40;4.93;;;10.50;99.90;;;;;;5061141;28;20464;-61
2024/01/23 09:05:04;;;;;;;7.07;4.90;;;11.10;99.90;;;;;;5059049;28;20444;-60
2024/01/23 09:07:30;;;;;;;6.47;4.53;;;11.60;99.90;;;;;;5041458;28;20408;-60
2024/01/23 09:09:56;;;;;;;14.47;4.60;;;12.10;99.90;;;;;;5056837;28;20907;-60
2024/01/23 09:12:22;;;;;;;7.80;4.20;;;12.60;99.90;;;;;;5061554;28;20184;-60
2024/01/23 09:14:48;;;;;;;11.63;5.50;;;13.10;99.90;;;;;;5063566;28;20227;-61
2024/01/23 09:17:14;;;;;;;12.47;5.37;;;13.40;99.90;;;;;;5037789;28;20755;-61
2024/01/23 09:19:40;;;;;;;12.97;5.60;;;13.60;99.90;;;;;;5054406;28;20420;-61
2024/01/23 09:22:06;;;;;;;10.47;6.37;;;13.90;99.90;;;;;;5061045;28;20627;-61
2024/01/23 09:24:32;;;;;;;9.90;4.53;;;14.30;99.90;;;;;;5057045;28;20417;-61
2024/01/23 09:27:01;;;;;;;6.40;3.90;;;14.80;98.20;;;;;;5043693;28;20413;-61
2024/01/23 09:29:30;;;;;;;8.00;5.63;;;15.40;96.90;;;;;;5046331;28;20485;-61
2024/01/23 09:31:56;;;;;;;9.17;4.90;;;16.20;94.80;;;;;;5064347;28;20521;-61
2024/01/23 09:34:22;;;;;;;11.23;5.93;;;17.00;90.90;;;;;;5058588;28;20959;-62
2024/01/23 09:36:48;;;;;;;7.00;5.60;;;17.90;90.60;;;;;;5058428;28;20407;-61
2024/01/23 09:39:13;;;;;;;9.23;6.63;;;18.50;85.80;;;;;;5061261;28;20180;-61
2024/01/23 09:41:50;;;;;;;12.45;7.07;;;18.70;84.50;;;;;;5060819;28;20502;-62
2024/01/23 09:44:19;;;;;;;11.97;7.13;;;19.30;77.80;;;;;;5060478;28;20185;-62
2024/01/23 09:46:47;;;;;;;9.50;7.73;;;19.70;74.80;;;;;;5066478;28;20498;-62
2024/01/23 09:49:14;;;;;;;38.10;26.83;;;19.70;70.20;;;;;;5044068;28;20407;-62
2024/01/23 09:51:43;;;;;;;38.77;28.13;;;19.70;75.20;;;;;;5063762;28;20529;-62
2024/01/23 09:54:12;;;;;;;77.63;50.03;;;19.70;73.50;;;;;;5062504;28;20938;-61
2024/01/23 09:56:41;;;;;;;13.87;9.47;;;19.60;73.00;;;;;;5060368;28;20420;-61
2024/01/23 09:59:09;;;;;;;11.60;6.93;;;19.70;74.60;;;;;;5056056;28;20524;-62
2024/01/23 10:01:36;;;;;;;10.83;7.97;;;19.80;69.80;;;;;;5039663;28;20756;-61
2024/01/23 10:04:04;;;;;;;10.33;6.27;;;19.50;70.30;;;;;;5062506;28;20476;-61
2024/01/23 10:06:33;;;;;;;9.40;5.40;;;19.40;70.60;;;;;;5059069;28;20838;-62
2024/01/23 10:09:00;;;;;;;13.60;6.80;;;19.00;72.80;;;;;;5049549;28;20987;-61
2024/01/23 10:11:32;;;;;;;12.83;6.30;;;18.80;74.50;;;;;;5060310;28;20400;-62
2024/01/23 10:14:01;;;;;;;7.37;4.27;;;18.60;72.80;;;;;;5059665;28;20470;-61
2024/01/23 10:16:27;;;;;;;9.00;5.23;;;18.40;73.30;;;;;;5062611;28;20519;-61
2024/01/23 10:18:53;;;;;;;8.20;4.60;;;18.30;73.60;;;;;;5064672;28;20411;-62
2024/01/23 10:21:21;;;;;;;8.47;3.73;;;18.30;74.90;;;;;;5064633;28;20419;-62
2024/01/23 10:23:50;;;;;;;12.00;6.00;;;18.20;73.80;;;;;;5068144;28;20415;-61
2024/01/23 10:26:17;;;;;;;11.20;6.40;;;18.00;77.50;;;;;;5062788;28;20937;-62
2024/01/23 10:28:44;;;;;;;7.77;4.90;;;17.90;76.60;;;;;;5060469;28;20408;-61
2024/01/23 10:31:10;;;;;;;10.47;4.80;;;17.80;75.90;;;;;;5060753;28;20755;-61
2024/01/23 10:33:39;;;;;;;68.40;48.67;;;17.70;75.20;;;;;;5063572;28;20418;-60
2024/01/23 10:36:07;;;;;;;59.20;40.77;;;17.60;74.00;;;;;;5059658;28;21961;-61
2024/01/23 10:38:35;;;;;;;7.30;6.50;;;17.10;77.70;;;;;;5056617;28;20407;-61
2024/01/23 10:41:06;;;;;;;9.77;5.17;;;16.90;77.00;;;;;;5061741;28;20411;-61
2024/01/23 10:43:33;;;;;;;11.67;7.23;;;16.60;78.80;;;;;;5039915;28;21001;-61
2024/01/23 10:46:02;;;;;;;10.80;5.60;;;16.60;84.40;;;;;;5038943;28;20520;-66
2024/01/23 10:48:30;;;;;;;10.97;5.43;;;16.60;80.30;;;;;;5052246;28;20409;-61
2024/01/23 10:51:16;;;;;;;13.43;6.77;;;16.50;79.80;;;;;;5039985;28;20771;-61
2024/01/23 10:53:54;;;;;;;14.03;6.40;;;16.70;83.90;;;;;;5037671;28;20412;-61
2024/01/23 10:56:22;;;;;;;13.27;6.50;;;16.80;80.70;;;;;;5055989;28;20432;-61
2024/01/23 10:59:00;;;;;;;9.00;5.73;;;16.90;82.50;;;;;;5039378;28;20423;-61
2024/01/23 11:01:32;;;;;;;15.43;5.83;;;17.00;83.20;;;;;;5057940;28;20505;-61
2024/01/23 11:04:01;;;;;;;7.90;4.60;;;17.10;79.10;;;;;;5059152;28;20408;-61
2024/01/23 11:06:33;;;;;;;11.60;5.10;;;17.20;79.50;;;;;;5056643;28;20416;-61
2024/01/23 11:09:08;;;;;;;7.50;5.10;;;17.30;78.90;;;;;;5041277;28;20459;-61
2024/01/23 11:11:43;;;;;;;10.17;5.90;;;17.20;78.90;;;;;;5065413;28;20400;-61
2024/01/23 11:14:15;;;;;;;10.80;5.60;;;17.30;80.40;;;;;;5060989;28;20811;-62
2024/01/23 11:16:41;;;;;;;180.87;119.10;;;17.30;76.90;;;;;;5061809;28;20419;-61
2024/01/23 11:19:07;;;;;;;73.70;47.03;;;17.10;77.00;;;;;;5062657;28;20434;-61
2024/01/23 11:21:33;;;;;;;12.33;8.77;;;16.80;84.40;;;;;;5056215;28;20199;-62
2024/01/23 11:24:00;;;;;;;10.10;6.60;;;17.00;81.60;;;;;;5057188;28;20427;-61
2024/01/23 11:26:27;;;;;;;9.90;6.23;;;17.00;79.60;;;;;;5052660;28;20184;-61
2024/01/23 11:28:54;;;;;;;10.47;6.10;;;17.10;83.00;;;;;;5037896;28;20470;-61
2024/01/23 11:31:22;;;;;;;13.10;6.07;;;17.00;78.90;;;;;;5053901;28;20420;-61
2024/01/23 11:33:51;;;;;;;8.00;5.30;;;17.00;78.90;;;;;;5061590;28;20506;-61
2024/01/23 11:36:27;;;;;;;8.90;6.30;;;16.90;79.90;;;;;;5059875;28;20414;-61
2024/01/23 11:38:56;;;;;;;8.40;5.80;;;16.80;78.10;;;;;;5069553;28;20478;-61
2024/01/23 11:41:27;;;;;;;10.30;4.67;;;16.80;80.50;;;;;;5053375;28;20655;-61
2024/01/23 11:44:00;;;;;;;7.70;5.10;;;17.00;80.20;;;;;;5056123;28;20931;-62
2024/01/23 11:46:26;;;;;;;12.20;6.13;;;17.00;77.90;;;;;;5055062;28;20420;-61
2024/01/23 11:48:52;;;;;;;9.30;6.13;;;16.80;77.40;;;;;;5058564;28;20458;-61
2024/01/23 11:51:19;;;;;;;13.20;5.37;;;16.70;78.70;;;;;;5053683;28;20463;-61
2024/01/23 11:53:46;;;;;;;11.43;5.00;;;16.70;79.20;;;;;;5040199;28;20797;-62
2024/01/23 11:56:12;;;;;;;13.10;5.30;;;16.60;80.50;;;;;;5058810;28;20463;-61
2024/01/23 11:58:40;;;;;;;12.60;6.03;;;16.50;79.00;;;;;;5032557;28;20509;-61
2024/01/23 12:01:07;;;;;;;7.20;4.60;;;16.50;79.20;;;;;;5058084;28;20470;-61
2024/01/23 12:03:34;;;;;;;8.83;5.73;;;16.30;79.90;;;;;;5051797;28;20420;-62
2024/01/23 12:06:02;;;;;;;11.83;5.30;;;16.30;79.00;;;;;;5054110;28;20416;-63
2024/01/23 12:08:28;;;;;;;6.57;5.70;;;16.40;84.20;;;;;;5048381;28;20429;-61
2024/01/23 12:10:56;;;;;;;9.00;5.97;;;16.60;81.90;;;;;;5060509;28;20469;-62
2024/01/23 12:13:23;;;;;;;13.67;7.20;;;16.60;79.70;;;;;;5057719;28;20529;-60
2024/01/23 12:15:49;;;;;;;11.60;4.80;;;16.40;78.90;;;;;;5036493;28;20496;-60
2024/01/23 12:18:20;;;;;;;9.00;5.37;;;16.40;78.90;;;;;;5051540;28;20934;-60
2024/01/23 12:20:50;;;;;;;11.60;4.70;;;16.40;79.20;;;;;;5038874;28;20177;-60
2024/01/23 12:23:17;;;;;;;10.37;4.80;;;16.20;78.00;;;;;;5060579;28;20525;-60
2024/01/23 12:25:43;;;;;;;12.20;4.60;;;16.00;78.80;;;;;;5036719;28;20458;-61
2024/01/23 12:28:10;;;;;;;11.40;4.70;;;16.00;80.00;;;;;;5055967;28;20926;-60
2024/01/23 12:30:35;;;;;;;8.60;4.90;;;16.10;80.00;;;;;;5053614;28;20885;-61
2024/01/23 12:33:02;;;;;;;9.37;4.40;;;16.10;82.00;;;;;;5051238;28;20521;-61
2024/01/23 12:35:28;;;;;;;8.90;3.90;;;16.20;78.90;;;;;;5044960;28;20206;-61
2024/01/23 12:37:55;;;;;;;8.30;4.40;;;16.20;78.70;;;;;;5031593;28;20468;-61
2024/01/23 12:40:21;;;;;;;10.90;4.70;;;16.30;79.40;;;;;;5048604;28;20205;-60
2024/01/23 12:42:47;;;;;;;8.10;3.93;;;16.30;79.20;;;;;;5060065;28;20412;-61
2024/01/23 12:45:15;;;;;;;9.70;4.33;;;16.30;77.50;;;;;;5042812;28;20482;-61